sensor_id;sensor_type;location;lat;lon;timestamp;temperature;humidity
30206;DHT22;17010;51.306;3.150;2023-02-28T00:01:06;3.70;99.90
30206;DHT22;17010;51.306;3.150;2023-02-28T00:03:32;3.50;99.90
30206;DHT22;17010;51.306;3.150;2023-02-28T00:06:02;3.50;99.90
30206;DHT22;17010;51.306;3.150;2023-02-28T00:08:29;3.50;99.90
30206;DHT22;17010;51.306;3.150;2023-02-28T00:10:55;3.50;99.90
30206;DHT22;17010;51.306;3.150;2023-02-28T00:13:21;3.40;99.90
30206;DHT22;17010;51.306;3.150;2023-02-28T00:15:57;3.30;99.90
30206;DHT22;17010;51.306;3.150;2023-02-28T00:18:24;3.30;99.90
30206;DHT22;17010;51.306;3.150;2023-02-28T00:20:50;3.30;99.90
30206;DHT22;17010;51.306;3.150;2023-02-28T00:23:16;3.30;99.90
30206;DHT22;17010;51.306;3.150;2023-02-28T00:25:42;3.20;99.90
30206;DHT22;17010;51.306;3.150;2023-02-28T00:28:08;3.20;99.90
30206;DHT22;17010;51.306;3.150;2023-02-28T00:30:35;3.20;99.90
30206;DHT22;17010;51.306;3.150;2023-02-28T00:33:01;3.10;99.90
30206;DHT22;17010;51.306;3.150;2023-02-28T00:35:27;3.10;99.90
30206;DHT22;17010;51.306;3.150;2023-02-28T00:37:53;3.10;99.90
30206;DHT22;17010;51.306;3.150;2023-02-28T00:40:19;3.20;99.90
30206;DHT22;17010;51.306;3.150;2023-02-28T00:42:45;3.20;99.90
30206;DHT22;17010;51.306;3.150;2023-02-28T00:45:12;3.20;99.90
30206;DHT22;17010;51.306;3.150;2023-02-28T00:47:38;3.10;99.90
30206;DHT22;17010;51.306;3.150;2023-02-28T00:50:05;3.10;99.90
30206;DHT22;17010;51.306;3.150;2023-02-28T00:52:31;3.10;99.90
30206;DHT22;17010;51.306;3.150;2023-02-28T00:54:57;3.10;99.90
30206;DHT22;17010;51.306;3.150;2023-02-28T00:57:24;3.10;99.90
30206;DHT22;17010;51.306;3.150;2023-02-28T00:59:50;3.00;99.90
30206;DHT22;17010;51.306;3.150;2023-02-28T01:02:16;3.00;99.90
30206;DHT22;17010;51.306;3.150;2023-02-28T01:04:43;3.10;99.90
30206;DHT22;17010;51.306;3.150;2023-02-28T01:07:09;3.10;99.90
30206;DHT22;17010;51.306;3.150;2023-02-28T01:09:36;3.20;99.90
30206;DHT22;17010;51.306;3.150;2023-02-28T01:12:02;3.20;99.90
30206;DHT22;17010;51.306;3.150;2023-02-28T01:14:28;3.20;99.90
30206;DHT22;17010;51.306;3.150;2023-02-28T01:16:54;3.10;99.90
30206;DHT22;17010;51.306;3.150;2023-02-28T01:19:21;3.10;99.90
30206;DHT22;17010;51.306;3.150;2023-02-28T01:21:47;3.10;99.90
30206;DHT22;17010;51.306;3.150;2023-02-28T01:24:13;3.00;99.90
30206;DHT22;17010;51.306;3.150;2023-02-28T01:26:39;3.00;99.90
30206;DHT22;17010;51.306;3.150;2023-02-28T01:29:05;3.00;99.90
30206;DHT22;17010;51.306;3.150;2023-02-28T01:31:31;2.90;99.90
30206;DHT22;17010;51.306;3.150;2023-02-28T01:33:57;2.90;99.90
30206;DHT22;17010;51.306;3.150;2023-02-28T01:36:24;2.90;99.90
30206;DHT22;17010;51.306;3.150;2023-02-28T01:38:51;2.90;99.90
30206;DHT22;17010;51.306;3.150;2023-02-28T01:41:20;2.90;99.90
30206;DHT22;17010;51.306;3.150;2023-02-28T01:46:13;2.90;99.90
30206;DHT22;17010;51.306;3.150;2023-02-28T01:49:09;2.90;99.90
30206;DHT22;17010;51.306;3.150;2023-02-28T01:54:08;2.80;99.90
30206;DHT22;17010;51.306;3.150;2023-02-28T01:56:47;2.80;99.90
30206;DHT22;17010;51.306;3.150;2023-02-28T01:59:20;2.60;99.90
30206;DHT22;17010;51.306;3.150;2023-02-28T02:01:47;2.60;99.90
30206;DHT22;17010;51.306;3.150;2023-02-28T02:04:13;2.60;99.90
30206;DHT22;17010;51.306;3.150;2023-02-28T02:06:44;2.60;99.90
30206;DHT22;17010;51.306;3.150;2023-02-28T02:09:12;2.70;99.90
30206;DHT22;17010;51.306;3.150;2023-02-28T02:11:40;2.70;99.90
30206;DHT22;17010;51.306;3.150;2023-02-28T02:25:14;2.70;99.90
30206;DHT22;17010;51.306;3.150;2023-02-28T02:36:00;3.10;99.90
30206;DHT22;17010;51.306;3.150;2023-02-28T02:38:45;3.10;99.90
30206;DHT22;17010;51.306;3.150;2023-02-28T02:41:36;3.10;99.90
30206;DHT22;17010;51.306;3.150;2023-02-28T02:44:33;3.10;99.90
30206;DHT22;17010;51.306;3.150;2023-02-28T02:47:12;3.10;99.90
30206;DHT22;17010;51.306;3.150;2023-02-28T02:49:42;3.10;99.90
30206;DHT22;17010;51.306;3.150;2023-02-28T02:52:10;3.10;99.90
30206;DHT22;17010;51.306;3.150;2023-02-28T02:54:40;3.10;99.90
30206;DHT22;17010;51.306;3.150;2023-02-28T02:57:17;3.10;99.90
30206;DHT22;17010;51.306;3.150;2023-02-28T02:59:45;3.20;99.90
30206;DHT22;17010;51.306;3.150;2023-02-28T03:02:13;3.20;99.90
30206;DHT22;17010;51.306;3.150;2023-02-28T03:04:46;3.20;99.90
30206;DHT22;17010;51.306;3.150;2023-02-28T03:07:14;3.20;99.90
30206;DHT22;17010;51.306;3.150;2023-02-28T03:09:40;3.30;99.90
30206;DHT22;17010;51.306;3.150;2023-02-28T03:12:11;3.30;99.90
30206;DHT22;17010;51.306;3.150;2023-02-28T03:23:19;3.50;99.90
30206;DHT22;17010;51.306;3.150;2023-02-28T03:33:47;3.70;99.90
30206;DHT22;17010;51.306;3.150;2023-02-28T03:36:29;3.70;99.90
30206;DHT22;17010;51.306;3.150;2023-02-28T03:39:05;3.70;99.90
30206;DHT22;17010;51.306;3.150;2023-02-28T03:41:52;3.80;99.90
30206;DHT22;17010;51.306;3.150;2023-02-28T03:46:54;3.90;99.90
30206;DHT22;17010;51.306;3.150;2023-02-28T03:49:40;4.00;99.90
30206;DHT22;17010;51.306;3.150;2023-02-28T03:52:13;4.10;99.90
30206;DHT22;17010;51.306;3.150;2023-02-28T03:54:45;4.10;99.90
30206;DHT22;17010;51.306;3.150;2023-02-28T03:57:33;4.00;99.90
30206;DHT22;17010;51.306;3.150;2023-02-28T04:00:10;4.00;99.90
30206;DHT22;17010;51.306;3.150;2023-02-28T04:02:38;4.00;99.90
30206;DHT22;17010;51.306;3.150;2023-02-28T04:05:06;4.00;99.90
30206;DHT22;17010;51.306;3.150;2023-02-28T04:07:32;4.00;99.90
30206;DHT22;17010;51.306;3.150;2023-02-28T04:09:58;4.00;99.90
30206;DHT22;17010;51.306;3.150;2023-02-28T04:12:25;4.00;99.90
30206;DHT22;17010;51.306;3.150;2023-02-28T04:14:51;4.10;99.90
30206;DHT22;17010;51.306;3.150;2023-02-28T04:17:18;4.10;99.90
30206;DHT22;17010;51.306;3.150;2023-02-28T04:19:44;4.10;99.90
30206;DHT22;17010;51.306;3.150;2023-02-28T04:22:10;4.10;99.90
30206;DHT22;17010;51.306;3.150;2023-02-28T04:24:37;4.20;99.90
30206;DHT22;17010;51.306;3.150;2023-02-28T04:27:08;4.20;99.90
30206;DHT22;17010;51.306;3.150;2023-02-28T04:29:34;4.20;99.90
30206;DHT22;17010;51.306;3.150;2023-02-28T04:32:01;4.20;99.90
30206;DHT22;17010;51.306;3.150;2023-02-28T04:34:29;4.20;99.90
30206;DHT22;17010;51.306;3.150;2023-02-28T04:36:56;4.20;99.90
30206;DHT22;17010;51.306;3.150;2023-02-28T04:39:23;4.20;99.90
30206;DHT22;17010;51.306;3.150;2023-02-28T04:41:50;4.20;99.90
30206;DHT22;17010;51.306;3.150;2023-02-28T04:44:16;4.10;99.90
30206;DHT22;17010;51.306;3.150;2023-02-28T04:46:43;4.20;99.90
30206;DHT22;17010;51.306;3.150;2023-02-28T04:49:12;4.20;99.90
30206;DHT22;17010;51.306;3.150;2023-02-28T04:51:39;4.10;99.90
30206;DHT22;17010;51.306;3.150;2023-02-28T04:54:05;4.10;99.90
30206;DHT22;17010;51.306;3.150;2023-02-28T04:56:32;4.20;99.90
30206;DHT22;17010;51.306;3.150;2023-02-28T04:58:58;4.20;99.90
30206;DHT22;17010;51.306;3.150;2023-02-28T05:01:26;4.10;99.90
30206;DHT22;17010;51.306;3.150;2023-02-28T05:03:54;4.10;99.90
30206;DHT22;17010;51.306;3.150;2023-02-28T05:06:22;4.10;99.90
30206;DHT22;17010;51.306;3.150;2023-02-28T05:08:49;4.10;99.90
30206;DHT22;17010;51.306;3.150;2023-02-28T05:11:19;4.10;99.90
30206;DHT22;17010;51.306;3.150;2023-02-28T05:13:45;4.10;99.90
30206;DHT22;17010;51.306;3.150;2023-02-28T05:16:12;4.20;99.90
30206;DHT22;17010;51.306;3.150;2023-02-28T05:18:38;4.30;99.90
30206;DHT22;17010;51.306;3.150;2023-02-28T05:21:05;4.20;99.90
30206;DHT22;17010;51.306;3.150;2023-02-28T05:23:31;4.20;99.90
30206;DHT22;17010;51.306;3.150;2023-02-28T05:25:58;4.20;99.90
30206;DHT22;17010;51.306;3.150;2023-02-28T05:28:24;4.30;99.90
30206;DHT22;17010;51.306;3.150;2023-02-28T05:30:50;4.30;99.90
30206;DHT22;17010;51.306;3.150;2023-02-28T05:33:16;4.30;99.90
30206;DHT22;17010;51.306;3.150;2023-02-28T05:35:42;4.30;99.90
30206;DHT22;17010;51.306;3.150;2023-02-28T05:38:09;4.30;99.90
30206;DHT22;17010;51.306;3.150;2023-02-28T05:40:35;4.30;99.90
30206;DHT22;17010;51.306;3.150;2023-02-28T05:43:03;4.30;99.90
30206;DHT22;17010;51.306;3.150;2023-02-28T05:45:29;4.30;99.90
30206;DHT22;17010;51.306;3.150;2023-02-28T05:47:56;4.30;99.90
30206;DHT22;17010;51.306;3.150;2023-02-28T05:50:22;4.30;99.90
30206;DHT22;17010;51.306;3.150;2023-02-28T05:52:52;4.30;99.90
30206;DHT22;17010;51.306;3.150;2023-02-28T05:55:18;4.30;99.90
30206;DHT22;17010;51.306;3.150;2023-02-28T05:57:45;4.30;99.90
30206;DHT22;17010;51.306;3.150;2023-02-28T06:00:11;4.20;99.90
30206;DHT22;17010;51.306;3.150;2023-02-28T06:02:41;4.20;99.90
30206;DHT22;17010;51.306;3.150;2023-02-28T06:05:12;4.10;99.90
30206;DHT22;17010;51.306;3.150;2023-02-28T06:07:39;4.00;99.90
30206;DHT22;17010;51.306;3.150;2023-02-28T06:10:05;4.00;99.90
30206;DHT22;17010;51.306;3.150;2023-02-28T06:12:31;4.00;99.90
30206;DHT22;17010;51.306;3.150;2023-02-28T06:14:58;4.00;99.90
30206;DHT22;17010;51.306;3.150;2023-02-28T06:17:24;3.90;99.90
30206;DHT22;17010;51.306;3.150;2023-02-28T06:19:50;3.90;99.90
30206;DHT22;17010;51.306;3.150;2023-02-28T06:22:16;3.90;99.90
30206;DHT22;17010;51.306;3.150;2023-02-28T06:24:42;4.00;99.90
30206;DHT22;17010;51.306;3.150;2023-02-28T06:27:09;4.00;99.90
30206;DHT22;17010;51.306;3.150;2023-02-28T06:29:35;4.00;99.90
30206;DHT22;17010;51.306;3.150;2023-02-28T06:32:02;4.00;99.90
30206;DHT22;17010;51.306;3.150;2023-02-28T06:34:28;4.00;99.90
30206;DHT22;17010;51.306;3.150;2023-02-28T06:36:54;3.90;99.90
30206;DHT22;17010;51.306;3.150;2023-02-28T06:39:20;3.80;99.90
30206;DHT22;17010;51.306;3.150;2023-02-28T06:41:46;3.80;99.90
30206;DHT22;17010;51.306;3.150;2023-02-28T06:44:15;3.80;99.90
30206;DHT22;17010;51.306;3.150;2023-02-28T06:46:42;3.80;99.90
30206;DHT22;17010;51.306;3.150;2023-02-28T06:49:09;3.70;99.90
30206;DHT22;17010;51.306;3.150;2023-02-28T06:51:36;3.70;99.90
30206;DHT22;17010;51.306;3.150;2023-02-28T06:54:03;3.70;99.90
30206;DHT22;17010;51.306;3.150;2023-02-28T06:56:30;3.70;99.90
30206;DHT22;17010;51.306;3.150;2023-02-28T06:58:56;3.60;99.90
30206;DHT22;17010;51.306;3.150;2023-02-28T07:01:22;3.60;99.90
30206;DHT22;17010;51.306;3.150;2023-02-28T07:03:50;3.60;99.90
30206;DHT22;17010;51.306;3.150;2023-02-28T07:06:21;3.60;99.90
30206;DHT22;17010;51.306;3.150;2023-02-28T07:08:51;3.60;99.90
30206;DHT22;17010;51.306;3.150;2023-02-28T07:11:19;3.50;99.90
30206;DHT22;17010;51.306;3.150;2023-02-28T07:13:47;3.50;99.90
30206;DHT22;17010;51.306;3.150;2023-02-28T07:16:13;3.60;99.90
30206;DHT22;17010;51.306;3.150;2023-02-28T07:18:39;3.60;99.90
30206;DHT22;17010;51.306;3.150;2023-02-28T07:21:08;3.60;99.90
30206;DHT22;17010;51.306;3.150;2023-02-28T07:23:34;3.50;99.90
30206;DHT22;17010;51.306;3.150;2023-02-28T07:26:01;3.60;99.90
30206;DHT22;17010;51.306;3.150;2023-02-28T07:28:27;3.60;99.90
30206;DHT22;17010;51.306;3.150;2023-02-28T07:30:53;3.60;99.90
30206;DHT22;17010;51.306;3.150;2023-02-28T07:33:19;3.50;99.90
30206;DHT22;17010;51.306;3.150;2023-02-28T07:35:45;3.40;99.90
30206;DHT22;17010;51.306;3.150;2023-02-28T07:38:12;3.50;99.90
30206;DHT22;17010;51.306;3.150;2023-02-28T07:40:39;3.50;99.90
30206;DHT22;17010;51.306;3.150;2023-02-28T07:43:06;3.60;99.90
30206;DHT22;17010;51.306;3.150;2023-02-28T07:45:32;3.50;99.90
30206;DHT22;17010;51.306;3.150;2023-02-28T07:48:00;3.50;99.90
30206;DHT22;17010;51.306;3.150;2023-02-28T07:50:26;3.50;99.90
30206;DHT22;17010;51.306;3.150;2023-02-28T07:52:58;3.50;99.90
30206;DHT22;17010;51.306;3.150;2023-02-28T07:55:24;3.50;99.90
30206;DHT22;17010;51.306;3.150;2023-02-28T07:57:50;3.60;99.90
30206;DHT22;17010;51.306;3.150;2023-02-28T08:00:17;3.50;99.90
30206;DHT22;17010;51.306;3.150;2023-02-28T08:02:43;3.50;99.90
30206;DHT22;17010;51.306;3.150;2023-02-28T08:05:10;3.50;99.90
30206;DHT22;17010;51.306;3.150;2023-02-28T08:07:36;3.60;99.90
30206;DHT22;17010;51.306;3.150;2023-02-28T08:10:03;3.50;99.90
30206;DHT22;17010;51.306;3.150;2023-02-28T08:12:31;3.50;99.90
30206;DHT22;17010;51.306;3.150;2023-02-28T08:14:57;3.60;99.90
30206;DHT22;17010;51.306;3.150;2023-02-28T08:17:24;3.60;99.90
30206;DHT22;17010;51.306;3.150;2023-02-28T08:19:50;3.70;99.90
30206;DHT22;17010;51.306;3.150;2023-02-28T08:22:16;3.80;99.90
30206;DHT22;17010;51.306;3.150;2023-02-28T08:24:42;3.70;99.90
30206;DHT22;17010;51.306;3.150;2023-02-28T08:27:10;3.70;99.90
30206;DHT22;17010;51.306;3.150;2023-02-28T08:29:39;3.80;99.90
30206;DHT22;17010;51.306;3.150;2023-02-28T08:32:06;3.90;99.90
30206;DHT22;17010;51.306;3.150;2023-02-28T08:34:33;3.80;99.90
30206;DHT22;17010;51.306;3.150;2023-02-28T08:36:59;3.70;99.90
30206;DHT22;17010;51.306;3.150;2023-02-28T08:39:25;3.70;99.90
30206;DHT22;17010;51.306;3.150;2023-02-28T08:41:51;3.60;99.90
30206;DHT22;17010;51.306;3.150;2023-02-28T08:44:17;3.60;99.90
30206;DHT22;17010;51.306;3.150;2023-02-28T08:46:43;3.60;99.90
30206;DHT22;17010;51.306;3.150;2023-02-28T08:49:10;3.60;99.90
30206;DHT22;17010;51.306;3.150;2023-02-28T08:51:36;3.50;99.90
30206;DHT22;17010;51.306;3.150;2023-02-28T08:54:02;3.50;99.90
30206;DHT22;17010;51.306;3.150;2023-02-28T08:56:28;3.50;99.90
30206;DHT22;17010;51.306;3.150;2023-02-28T08:58:56;3.40;99.90
30206;DHT22;17010;51.306;3.150;2023-02-28T09:01:27;3.40;99.90
30206;DHT22;17010;51.306;3.150;2023-02-28T09:03:53;3.50;99.90
30206;DHT22;17010;51.306;3.150;2023-02-28T09:06:22;3.50;99.90
30206;DHT22;17010;51.306;3.150;2023-02-28T09:08:49;3.50;99.90
30206;DHT22;17010;51.306;3.150;2023-02-28T09:11:16;3.50;99.90
30206;DHT22;17010;51.306;3.150;2023-02-28T09:13:42;3.40;99.90
30206;DHT22;17010;51.306;3.150;2023-02-28T09:16:11;3.30;99.90
30206;DHT22;17010;51.306;3.150;2023-02-28T09:18:39;3.30;99.90
30206;DHT22;17010;51.306;3.150;2023-02-28T09:21:10;3.20;99.90
30206;DHT22;17010;51.306;3.150;2023-02-28T09:23:40;3.10;99.90
30206;DHT22;17010;51.306;3.150;2023-02-28T09:26:06;3.00;99.90
30206;DHT22;17010;51.306;3.150;2023-02-28T09:28:33;2.90;99.90
30206;DHT22;17010;51.306;3.150;2023-02-28T09:30:59;2.90;99.90
30206;DHT22;17010;51.306;3.150;2023-02-28T09:33:26;2.80;99.90
30206;DHT22;17010;51.306;3.150;2023-02-28T09:35:58;2.80;99.90
30206;DHT22;17010;51.306;3.150;2023-02-28T09:38:26;2.80;99.90
30206;DHT22;17010;51.306;3.150;2023-02-28T09:41:08;2.80;99.90
30206;DHT22;17010;51.306;3.150;2023-02-28T09:43:37;2.80;99.90
30206;DHT22;17010;51.306;3.150;2023-02-28T09:46:32;2.90;99.90
30206;DHT22;17010;51.306;3.150;2023-02-28T09:49:02;2.80;99.90
30206;DHT22;17010;51.306;3.150;2023-02-28T09:51:56;2.80;99.90
30206;DHT22;17010;51.306;3.150;2023-02-28T09:54:26;2.70;99.90
30206;DHT22;17010;51.306;3.150;2023-02-28T09:57:02;2.60;99.90
30206;DHT22;17010;51.306;3.150;2023-02-28T10:05:12;2.40;99.90
30206;DHT22;17010;51.306;3.150;2023-02-28T10:08:02;2.30;99.90
30206;DHT22;17010;51.306;3.150;2023-02-28T10:10:50;2.30;99.90
30206;DHT22;17010;51.306;3.150;2023-02-28T10:13:24;2.30;99.90
30206;DHT22;17010;51.306;3.150;2023-02-28T10:15:57;2.20;99.90
30206;DHT22;17010;51.306;3.150;2023-02-28T10:18:27;2.30;99.90
30206;DHT22;17010;51.306;3.150;2023-02-28T10:20:54;2.30;99.90
30206;DHT22;17010;51.306;3.150;2023-02-28T10:23:34;2.30;99.90
30206;DHT22;17010;51.306;3.150;2023-02-28T10:26:12;2.20;99.90
30206;DHT22;17010;51.306;3.150;2023-02-28T10:28:39;2.20;99.90
30206;DHT22;17010;51.306;3.150;2023-02-28T10:31:06;2.20;99.90
30206;DHT22;17010;51.306;3.150;2023-02-28T10:33:35;2.20;99.90
30206;DHT22;17010;51.306;3.150;2023-02-28T10:36:02;2.10;99.90
30206;DHT22;17010;51.306;3.150;2023-02-28T10:38:33;2.20;99.90
30206;DHT22;17010;51.306;3.150;2023-02-28T10:41:11;2.00;99.90
30206;DHT22;17010;51.306;3.150;2023-02-28T10:43:39;2.00;99.90
30206;DHT22;17010;51.306;3.150;2023-02-28T10:51:38;2.10;99.90
30206;DHT22;17010;51.306;3.150;2023-02-28T10:54:04;2.10;99.90
30206;DHT22;17010;51.306;3.150;2023-02-28T10:56:32;2.10;99.90
30206;DHT22;17010;51.306;3.150;2023-02-28T11:01:43;2.30;99.90
30206;DHT22;17010;51.306;3.150;2023-02-28T11:09:38;2.30;99.90
30206;DHT22;17010;51.306;3.150;2023-02-28T11:12:39;2.30;99.90
30206;DHT22;17010;51.306;3.150;2023-02-28T11:15:28;2.50;99.90
30206;DHT22;17010;51.306;3.150;2023-02-28T11:18:15;2.60;99.90
30206;DHT22;17010;51.306;3.150;2023-02-28T11:20:46;2.80;99.90
30206;DHT22;17010;51.306;3.150;2023-02-28T11:23:14;2.90;99.90
30206;DHT22;17010;51.306;3.150;2023-02-28T11:25:49;3.00;99.90
30206;DHT22;17010;51.306;3.150;2023-02-28T11:28:31;3.10;99.90
30206;DHT22;17010;51.306;3.150;2023-02-28T11:33:55;3.20;99.90
30206;DHT22;17010;51.306;3.150;2023-02-28T11:36:27;3.20;99.90
30206;DHT22;17010;51.306;3.150;2023-02-28T11:38:56;3.30;99.90
30206;DHT22;17010;51.306;3.150;2023-02-28T11:41:42;3.40;99.90
30206;DHT22;17010;51.306;3.150;2023-02-28T11:49:56;3.40;99.90
30206;DHT22;17010;51.306;3.150;2023-02-28T11:52:54;3.50;99.90
30206;DHT22;17010;51.306;3.150;2023-02-28T12:08:57;4.20;99.90
30206;DHT22;17010;51.306;3.150;2023-02-28T12:12:02;4.10;99.90
30206;DHT22;17010;51.306;3.150;2023-02-28T12:14:49;4.20;99.90
30206;DHT22;17010;51.306;3.150;2023-02-28T12:28:39;3.90;99.90
30206;DHT22;17010;51.306;3.150;2023-02-28T12:31:28;4.00;99.90
30206;DHT22;17010;51.306;3.150;2023-02-28T12:33:59;4.10;99.90
30206;DHT22;17010;51.306;3.150;2023-02-28T12:36:27;4.20;99.90
30206;DHT22;17010;51.306;3.150;2023-02-28T12:39:07;4.30;99.90
30206;DHT22;17010;51.306;3.150;2023-02-28T12:41:54;4.30;99.90
30206;DHT22;17010;51.306;3.150;2023-02-28T12:44:26;4.50;99.90
30206;DHT22;17010;51.306;3.150;2023-02-28T12:46:54;4.60;99.90
30206;DHT22;17010;51.306;3.150;2023-02-28T12:49:30;4.50;99.90
30206;DHT22;17010;51.306;3.150;2023-02-28T12:51:59;4.60;99.90
30206;DHT22;17010;51.306;3.150;2023-02-28T12:57:15;4.80;99.90
30206;DHT22;17010;51.306;3.150;2023-02-28T13:11:06;5.20;99.90
30206;DHT22;17010;51.306;3.150;2023-02-28T13:13:32;5.30;99.90
30206;DHT22;17010;51.306;3.150;2023-02-28T13:16:03;5.40;99.90
30206;DHT22;17010;51.306;3.150;2023-02-28T13:18:42;5.40;99.90
30206;DHT22;17010;51.306;3.150;2023-02-28T13:21:21;5.50;99.90
30206;DHT22;17010;51.306;3.150;2023-02-28T13:29:27;5.80;99.90
30206;DHT22;17010;51.306;3.150;2023-02-28T13:39:51;5.50;99.90
30206;DHT22;17010;51.306;3.150;2023-02-28T13:50:33;5.30;99.90
30206;DHT22;17010;51.306;3.150;2023-02-28T14:06:53;5.40;99.90
30206;DHT22;17010;51.306;3.150;2023-02-28T14:09:32;5.30;99.90
30206;DHT22;17010;51.306;3.150;2023-02-28T14:15:25;5.30;99.90
30206;DHT22;17010;51.306;3.150;2023-02-28T14:17:54;5.30;99.90
30206;DHT22;17010;51.306;3.150;2023-02-28T14:20:22;5.30;99.90
30206;DHT22;17010;51.306;3.150;2023-02-28T14:25:47;5.40;99.90
30206;DHT22;17010;51.306;3.150;2023-02-28T14:38:46;5.40;99.90
30206;DHT22;17010;51.306;3.150;2023-02-28T14:41:33;5.40;99.90
30206;DHT22;17010;51.306;3.150;2023-02-28T14:44:23;5.50;99.90
30206;DHT22;17010;51.306;3.150;2023-02-28T14:46:59;5.60;99.90
30206;DHT22;17010;51.306;3.150;2023-02-28T14:49:36;5.60;99.90
30206;DHT22;17010;51.306;3.150;2023-02-28T14:54:36;5.60;99.90
30206;DHT22;17010;51.306;3.150;2023-02-28T14:57:03;5.60;99.90
30206;DHT22;17010;51.306;3.150;2023-02-28T14:59:34;5.60;99.90
30206;DHT22;17010;51.306;3.150;2023-02-28T15:02:21;5.60;99.90
30206;DHT22;17010;51.306;3.150;2023-02-28T15:05:10;5.60;99.90
30206;DHT22;17010;51.306;3.150;2023-02-28T15:07:44;5.50;99.90
30206;DHT22;17010;51.306;3.150;2023-02-28T15:12:40;5.60;99.90
30206;DHT22;17010;51.306;3.150;2023-02-28T15:15:15;5.60;99.90
30206;DHT22;17010;51.306;3.150;2023-02-28T15:17:42;5.60;99.90
30206;DHT22;17010;51.306;3.150;2023-02-28T15:20:11;5.50;99.90
30206;DHT22;17010;51.306;3.150;2023-02-28T15:22:38;5.40;99.90
30206;DHT22;17010;51.306;3.150;2023-02-28T15:25:05;5.40;99.90
30206;DHT22;17010;51.306;3.150;2023-02-28T15:27:34;5.40;99.90
30206;DHT22;17010;51.306;3.150;2023-02-28T15:30:11;5.30;99.90
30206;DHT22;17010;51.306;3.150;2023-02-28T15:32:40;5.40;99.90
30206;DHT22;17010;51.306;3.150;2023-02-28T15:37:57;5.30;99.90
30206;DHT22;17010;51.306;3.150;2023-02-28T15:40:27;5.30;99.90
30206;DHT22;17010;51.306;3.150;2023-02-28T15:43:16;5.20;99.90
30206;DHT22;17010;51.306;3.150;2023-02-28T15:45:47;5.30;99.90
30206;DHT22;17010;51.306;3.150;2023-02-28T15:48:20;5.20;99.90
30206;DHT22;17010;51.306;3.150;2023-02-28T15:50:55;5.10;99.90
30206;DHT22;17010;51.306;3.150;2023-02-28T15:53:45;5.20;99.90
30206;DHT22;17010;51.306;3.150;2023-02-28T15:56:57;5.10;99.90
30206;DHT22;17010;51.306;3.150;2023-02-28T15:59:30;5.10;99.90
30206;DHT22;17010;51.306;3.150;2023-02-28T16:04:35;5.10;99.90
30206;DHT22;17010;51.306;3.150;2023-02-28T16:07:05;5.00;99.90
30206;DHT22;17010;51.306;3.150;2023-02-28T16:09:37;5.00;99.90
30206;DHT22;17010;51.306;3.150;2023-02-28T16:12:03;5.10;99.90
30206;DHT22;17010;51.306;3.150;2023-02-28T16:14:31;5.10;99.90
30206;DHT22;17010;51.306;3.150;2023-02-28T16:17:03;5.10;99.90
30206;DHT22;17010;51.306;3.150;2023-02-28T16:19:31;5.00;99.90
30206;DHT22;17010;51.306;3.150;2023-02-28T16:21:57;5.00;99.90
30206;DHT22;17010;51.306;3.150;2023-02-28T16:24:23;4.90;99.90
30206;DHT22;17010;51.306;3.150;2023-02-28T16:26:50;4.90;99.90
30206;DHT22;17010;51.306;3.150;2023-02-28T16:29:30;4.80;99.90
30206;DHT22;17010;51.306;3.150;2023-02-28T16:31:58;4.80;99.90
30206;DHT22;17010;51.306;3.150;2023-02-28T16:34:25;4.80;99.90
30206;DHT22;17010;51.306;3.150;2023-02-28T16:36:51;4.70;99.90
30206;DHT22;17010;51.306;3.150;2023-02-28T16:39:17;4.70;99.90
30206;DHT22;17010;51.306;3.150;2023-02-28T16:41:46;4.80;99.90
30206;DHT22;17010;51.306;3.150;2023-02-28T16:44:27;4.60;99.90
30206;DHT22;17010;51.306;3.150;2023-02-28T16:46:54;4.60;99.90
30206;DHT22;17010;51.306;3.150;2023-02-28T16:49:20;4.50;99.90
30206;DHT22;17010;51.306;3.150;2023-02-28T16:51:46;4.50;99.90
30206;DHT22;17010;51.306;3.150;2023-02-28T16:54:13;4.40;99.90
30206;DHT22;17010;51.306;3.150;2023-02-28T16:56:41;4.40;99.90
30206;DHT22;17010;51.306;3.150;2023-02-28T16:59:09;4.40;99.90
30206;DHT22;17010;51.306;3.150;2023-02-28T17:01:36;4.40;99.90
30206;DHT22;17010;51.306;3.150;2023-02-28T17:04:02;4.40;99.90
30206;DHT22;17010;51.306;3.150;2023-02-28T17:06:29;4.30;99.90
30206;DHT22;17010;51.306;3.150;2023-02-28T17:08:57;4.30;99.90
30206;DHT22;17010;51.306;3.150;2023-02-28T17:11:24;4.20;99.90
30206;DHT22;17010;51.306;3.150;2023-02-28T17:13:51;4.20;99.90
30206;DHT22;17010;51.306;3.150;2023-02-28T17:16:30;4.10;99.90
30206;DHT22;17010;51.306;3.150;2023-02-28T17:19:04;4.10;99.90
30206;DHT22;17010;51.306;3.150;2023-02-28T17:21:31;4.10;99.90
30206;DHT22;17010;51.306;3.150;2023-02-28T17:23:57;4.10;99.90
30206;DHT22;17010;51.306;3.150;2023-02-28T17:26:24;4.00;99.90
30206;DHT22;17010;51.306;3.150;2023-02-28T17:28:55;4.00;99.90
30206;DHT22;17010;51.306;3.150;2023-02-28T17:31:22;3.90;99.90
30206;DHT22;17010;51.306;3.150;2023-02-28T17:33:49;3.80;99.90
30206;DHT22;17010;51.306;3.150;2023-02-28T17:36:20;3.70;99.90
30206;DHT22;17010;51.306;3.150;2023-02-28T17:38:48;3.80;99.90
30206;DHT22;17010;51.306;3.150;2023-02-28T17:41:14;3.80;99.90
30206;DHT22;17010;51.306;3.150;2023-02-28T17:43:40;3.70;99.90
30206;DHT22;17010;51.306;3.150;2023-02-28T17:46:21;3.70;99.90
30206;DHT22;17010;51.306;3.150;2023-02-28T17:48:51;3.70;99.90
30206;DHT22;17010;51.306;3.150;2023-02-28T17:51:19;3.70;99.90
30206;DHT22;17010;51.306;3.150;2023-02-28T17:53:47;3.70;99.90
30206;DHT22;17010;51.306;3.150;2023-02-28T17:56:16;3.60;99.90
30206;DHT22;17010;51.306;3.150;2023-02-28T17:58:44;3.50;99.90
30206;DHT22;17010;51.306;3.150;2023-02-28T18:01:10;3.50;99.90
30206;DHT22;17010;51.306;3.150;2023-02-28T18:03:38;3.40;99.90
30206;DHT22;17010;51.306;3.150;2023-02-28T18:06:04;3.40;99.90
30206;DHT22;17010;51.306;3.150;2023-02-28T18:08:31;3.40;99.90
30206;DHT22;17010;51.306;3.150;2023-02-28T18:10:59;3.50;99.90
30206;DHT22;17010;51.306;3.150;2023-02-28T18:13:25;3.50;99.90
30206;DHT22;17010;51.306;3.150;2023-02-28T18:15:54;3.50;99.90
30206;DHT22;17010;51.306;3.150;2023-02-28T18:18:20;3.40;99.90
30206;DHT22;17010;51.306;3.150;2023-02-28T18:20:46;3.40;99.90
30206;DHT22;17010;51.306;3.150;2023-02-28T18:23:15;3.40;99.90
30206;DHT22;17010;51.306;3.150;2023-02-28T18:25:43;3.40;99.90
30206;DHT22;17010;51.306;3.150;2023-02-28T18:28:09;3.40;99.90
30206;DHT22;17010;51.306;3.150;2023-02-28T18:30:36;3.40;99.90
30206;DHT22;17010;51.306;3.150;2023-02-28T18:33:03;3.40;99.90
30206;DHT22;17010;51.306;3.150;2023-02-28T18:35:30;3.40;99.90
30206;DHT22;17010;51.306;3.150;2023-02-28T18:38:05;3.40;99.90
30206;DHT22;17010;51.306;3.150;2023-02-28T18:40:31;3.40;99.90
30206;DHT22;17010;51.306;3.150;2023-02-28T18:42:57;3.40;99.90
30206;DHT22;17010;51.306;3.150;2023-02-28T18:45:24;3.30;99.90
30206;DHT22;17010;51.306;3.150;2023-02-28T18:47:50;3.30;99.90
30206;DHT22;17010;51.306;3.150;2023-02-28T18:50:17;3.20;99.90
30206;DHT22;17010;51.306;3.150;2023-02-28T18:52:43;3.20;99.90
30206;DHT22;17010;51.306;3.150;2023-02-28T18:55:09;3.10;99.90